sensor_id;sensor_type;location;lat;lon;timestamp;P1;durP1;ratioP1;P2;durP2;ratioP2
1350;SDS011;669;50.206;9.998;2023-07-24T00:00:36;2.67;;;2.47;;
1350;SDS011;669;50.206;9.998;2023-07-24T00:03:07;2.10;;;2.00;;
1350;SDS011;669;50.206;9.998;2023-07-24T00:05:35;2.50;;;2.30;;
1350;SDS011;669;50.206;9.998;2023-07-24T00:08:03;3.03;;;2.30;;
1350;SDS011;669;50.206;9.998;2023-07-24T00:10:32;2.37;;;2.27;;
1350;SDS011;669;50.206;9.998;2023-07-24T00:13:00;2.10;;;2.00;;
1350;SDS011;669;50.206;9.998;2023-07-24T00:15:29;2.10;;;1.90;;
1350;SDS011;669;50.206;9.998;2023-07-24T00:17:57;2.33;;;2.13;;
1350;SDS011;669;50.206;9.998;2023-07-24T00:20:27;1.93;;;1.83;;
1350;SDS011;669;50.206;9.998;2023-07-24T00:22:55;2.10;;;2.00;;
1350;SDS011;669;50.206;9.998;2023-07-24T00:25:22;2.40;;;2.20;;
1350;SDS011;669;50.206;9.998;2023-07-24T00:27:50;4.93;;;1.90;;
1350;SDS011;669;50.206;9.998;2023-07-24T00:30:18;2.60;;;2.40;;
1350;SDS011;669;50.206;9.998;2023-07-24T00:32:46;2.20;;;2.10;;
1350;SDS011;669;50.206;9.998;2023-07-24T00:35:14;2.47;;;2.27;;
1350;SDS011;669;50.206;9.998;2023-07-24T00:37:44;2.00;;;1.90;;
1350;SDS011;669;50.206;9.998;2023-07-24T00:40:12;2.97;;;2.67;;
1350;SDS011;669;50.206;9.998;2023-07-24T00:42:40;3.00;;;2.53;;
1350;SDS011;669;50.206;9.998;2023-07-24T00:45:08;2.20;;;2.00;;
1350;SDS011;669;50.206;9.998;2023-07-24T00:47:36;1.90;;;1.80;;
1350;SDS011;669;50.206;9.998;2023-07-24T00:50:05;2.80;;;2.60;;
1350;SDS011;669;50.206;9.998;2023-07-24T00:52:34;2.00;;;1.90;;
1350;SDS011;669;50.206;9.998;2023-07-24T00:55:04;2.27;;;2.10;;
1350;SDS011;669;50.206;9.998;2023-07-24T00:57:34;2.57;;;2.37;;
1350;SDS011;669;50.206;9.998;2023-07-24T01:00:02;2.40;;;2.20;;
1350;SDS011;669;50.206;9.998;2023-07-24T01:02:31;2.23;;;2.03;;
1350;SDS011;669;50.206;9.998;2023-07-24T01:04:59;3.00;;;2.47;;
1350;SDS011;669;50.206;9.998;2023-07-24T01:07:27;3.30;;;2.30;;
1350;SDS011;669;50.206;9.998;2023-07-24T01:09:55;2.23;;;2.03;;
1350;SDS011;669;50.206;9.998;2023-07-24T01:12:27;2.30;;;2.10;;
1350;SDS011;669;50.206;9.998;2023-07-24T01:15:03;2.77;;;2.57;;
1350;SDS011;669;50.206;9.998;2023-07-24T01:17:36;2.10;;;2.00;;
1350;SDS011;669;50.206;9.998;2023-07-24T01:20:09;2.17;;;2.03;;
1350;SDS011;669;50.206;9.998;2023-07-24T01:22:44;2.97;;;2.60;;
1350;SDS011;669;50.206;9.998;2023-07-24T01:25:27;2.87;;;2.40;;
1350;SDS011;669;50.206;9.998;2023-07-24T01:28:05;3.13;;;2.93;;
1350;SDS011;669;50.206;9.998;2023-07-24T01:30:34;2.13;;;1.93;;
1350;SDS011;669;50.206;9.998;2023-07-24T01:33:02;2.97;;;2.67;;
1350;SDS011;669;50.206;9.998;2023-07-24T01:35:30;1.90;;;1.80;;
1350;SDS011;669;50.206;9.998;2023-07-24T01:38:00;2.50;;;2.30;;
1350;SDS011;669;50.206;9.998;2023-07-24T01:40:29;1.90;;;1.80;;
1350;SDS011;669;50.206;9.998;2023-07-24T01:42:57;2.50;;;2.30;;
1350;SDS011;669;50.206;9.998;2023-07-24T01:45:27;2.00;;;1.90;;
1350;SDS011;669;50.206;9.998;2023-07-24T01:47:55;3.30;;;2.40;;
1350;SDS011;669;50.206;9.998;2023-07-24T01:50:23;2.23;;;2.03;;
1350;SDS011;669;50.206;9.998;2023-07-24T01:52:51;2.30;;;2.10;;
1350;SDS011;669;50.206;9.998;2023-07-24T01:55:19;1.83;;;1.73;;
1350;SDS011;669;50.206;9.998;2023-07-24T01:57:47;2.53;;;2.33;;
1350;SDS011;669;50.206;9.998;2023-07-24T02:00:15;2.50;;;2.30;;
1350;SDS011;669;50.206;9.998;2023-07-24T02:02:44;2.43;;;2.30;;
1350;SDS011;669;50.206;9.998;2023-07-24T02:05:12;3.23;;;2.53;;
1350;SDS011;669;50.206;9.998;2023-07-24T02:07:40;2.73;;;2.37;;
1350;SDS011;669;50.206;9.998;2023-07-24T02:10:08;2.60;;;2.37;;
1350;SDS011;669;50.206;9.998;2023-07-24T02:12:37;3.37;;;2.53;;
1350;SDS011;669;50.206;9.998;2023-07-24T02:15:05;2.27;;;2.13;;
1350;SDS011;669;50.206;9.998;2023-07-24T02:17:34;2.30;;;2.13;;
1350;SDS011;669;50.206;9.998;2023-07-24T02:20:03;2.30;;;2.10;;
1350;SDS011;669;50.206;9.998;2023-07-24T02:22:32;2.20;;;2.10;;
1350;SDS011;669;50.206;9.998;2023-07-24T02:25:00;2.90;;;2.17;;
1350;SDS011;669;50.206;9.998;2023-07-24T02:27:29;2.77;;;2.57;;
1350;SDS011;669;50.206;9.998;2023-07-24T02:30:00;2.43;;;2.23;;
1350;SDS011;669;50.206;9.998;2023-07-24T02:32:29;2.23;;;2.13;;
1350;SDS011;669;50.206;9.998;2023-07-24T02:34:58;2.30;;;2.10;;
1350;SDS011;669;50.206;9.998;2023-07-24T02:37:27;3.77;;;2.90;;
1350;SDS011;669;50.206;9.998;2023-07-24T02:39:55;2.37;;;2.17;;
1350;SDS011;669;50.206;9.998;2023-07-24T02:42:23;1.90;;;1.80;;
1350;SDS011;669;50.206;9.998;2023-07-24T02:44:51;2.30;;;2.10;;
1350;SDS011;669;50.206;9.998;2023-07-24T02:47:19;2.33;;;2.20;;
1350;SDS011;669;50.206;9.998;2023-07-24T02:49:47;2.50;;;2.30;;
1350;SDS011;669;50.206;9.998;2023-07-24T02:52:16;2.03;;;1.87;;
1350;SDS011;669;50.206;9.998;2023-07-24T02:54:45;2.80;;;2.60;;
1350;SDS011;669;50.206;9.998;2023-07-24T02:57:13;3.70;;;2.30;;
1350;SDS011;669;50.206;9.998;2023-07-24T02:59:41;3.20;;;2.50;;
1350;SDS011;669;50.206;9.998;2023-07-24T03:02:09;2.30;;;2.10;;
1350;SDS011;669;50.206;9.998;2023-07-24T03:04:37;2.80;;;2.50;;
1350;SDS011;669;50.206;9.998;2023-07-24T03:07:05;2.73;;;2.53;;
1350;SDS011;669;50.206;9.998;2023-07-24T03:09:33;2.57;;;2.37;;
1350;SDS011;669;50.206;9.998;2023-07-24T03:12:02;3.37;;;2.80;;
1350;SDS011;669;50.206;9.998;2023-07-24T03:14:30;2.33;;;2.13;;
1350;SDS011;669;50.206;9.998;2023-07-24T03:16:58;3.77;;;3.47;;
1350;SDS011;669;50.206;9.998;2023-07-24T03:19:28;2.73;;;2.53;;
1350;SDS011;669;50.206;9.998;2023-07-24T03:21:56;3.50;;;3.13;;
1350;SDS011;669;50.206;9.998;2023-07-24T03:24:24;3.43;;;3.10;;
1350;SDS011;669;50.206;9.998;2023-07-24T03:26:52;3.00;;;2.70;;
1350;SDS011;669;50.206;9.998;2023-07-24T03:29:21;4.50;;;3.47;;
1350;SDS011;669;50.206;9.998;2023-07-24T03:31:49;4.07;;;3.67;;
1350;SDS011;669;50.206;9.998;2023-07-24T03:34:17;3.20;;;2.90;;
1350;SDS011;669;50.206;9.998;2023-07-24T03:36:45;3.27;;;2.63;;
1350;SDS011;669;50.206;9.998;2023-07-24T03:39:13;3.47;;;3.17;;
1350;SDS011;669;50.206;9.998;2023-07-24T03:41:41;4.13;;;3.60;;
1350;SDS011;669;50.206;9.998;2023-07-24T03:44:10;3.60;;;3.30;;
1350;SDS011;669;50.206;9.998;2023-07-24T03:46:39;3.77;;;2.97;;
1350;SDS011;669;50.206;9.998;2023-07-24T03:49:07;2.43;;;2.23;;
1350;SDS011;669;50.206;9.998;2023-07-24T03:51:35;2.77;;;2.57;;
1350;SDS011;669;50.206;9.998;2023-07-24T03:54:03;3.43;;;3.13;;
1350;SDS011;669;50.206;9.998;2023-07-24T03:56:31;3.00;;;2.70;;
1350;SDS011;669;50.206;9.998;2023-07-24T03:58:59;3.10;;;2.90;;
1350;SDS011;669;50.206;9.998;2023-07-24T04:01:27;3.73;;;3.43;;
1350;SDS011;669;50.206;9.998;2023-07-24T04:03:56;2.97;;;2.00;;
1350;SDS011;669;50.206;9.998;2023-07-24T04:06:25;3.07;;;2.77;;
1350;SDS011;669;50.206;9.998;2023-07-24T04:08:53;3.43;;;3.13;;
1350;SDS011;669;50.206;9.998;2023-07-24T04:11:21;3.60;;;2.93;;
1350;SDS011;669;50.206;9.998;2023-07-24T04:13:49;2.90;;;2.70;;
1350;SDS011;669;50.206;9.998;2023-07-24T04:16:17;2.37;;;2.17;;
1350;SDS011;669;50.206;9.998;2023-07-24T04:18:45;3.73;;;3.13;;
1350;SDS011;669;50.206;9.998;2023-07-24T04:21:14;2.90;;;2.60;;
1350;SDS011;669;50.206;9.998;2023-07-24T04:23:42;3.20;;;2.90;;
1350;SDS011;669;50.206;9.998;2023-07-24T04:26:10;2.77;;;2.57;;
1350;SDS011;669;50.206;9.998;2023-07-24T04:28:38;2.40;;;2.20;;
1350;SDS011;669;50.206;9.998;2023-07-24T04:31:06;2.90;;;2.70;;
1350;SDS011;669;50.206;9.998;2023-07-24T04:33:34;3.30;;;2.77;;
1350;SDS011;669;50.206;9.998;2023-07-24T04:36:02;3.53;;;3.13;;
1350;SDS011;669;50.206;9.998;2023-07-24T04:38:32;3.43;;;3.13;;
1350;SDS011;669;50.206;9.998;2023-07-24T04:41:00;3.10;;;2.90;;
1350;SDS011;669;50.206;9.998;2023-07-24T04:43:28;3.73;;;3.00;;
1350;SDS011;669;50.206;9.998;2023-07-24T04:45:57;2.67;;;2.47;;
1350;SDS011;669;50.206;9.998;2023-07-24T04:48:25;3.27;;;2.90;;
1350;SDS011;669;50.206;9.998;2023-07-24T04:50:53;3.10;;;2.83;;
1350;SDS011;669;50.206;9.998;2023-07-24T04:53:21;3.87;;;3.57;;
1350;SDS011;669;50.206;9.998;2023-07-24T04:55:51;3.17;;;2.97;;
1350;SDS011;669;50.206;9.998;2023-07-24T04:58:19;3.50;;;3.20;;
1350;SDS011;669;50.206;9.998;2023-07-24T05:00:47;4.73;;;3.10;;
1350;SDS011;669;50.206;9.998;2023-07-24T05:03:15;4.00;;;3.60;;
1350;SDS011;669;50.206;9.998;2023-07-24T05:05:47;3.50;;;3.03;;
1350;SDS011;669;50.206;9.998;2023-07-24T05:08:16;3.57;;;3.27;;
1350;SDS011;669;50.206;9.998;2023-07-24T05:10:45;3.80;;;3.50;;
1350;SDS011;669;50.206;9.998;2023-07-24T05:13:15;3.73;;;3.17;;
1350;SDS011;669;50.206;9.998;2023-07-24T05:15:42;4.23;;;3.60;;
1350;SDS011;669;50.206;9.998;2023-07-24T05:18:10;3.50;;;3.20;;
1350;SDS011;669;50.206;9.998;2023-07-24T05:20:42;3.67;;;3.37;;
1350;SDS011;669;50.206;9.998;2023-07-24T05:23:11;3.63;;;3.33;;
1350;SDS011;669;50.206;9.998;2023-07-24T05:25:39;5.20;;;4.70;;
1350;SDS011;669;50.206;9.998;2023-07-24T05:28:07;5.33;;;3.60;;
1350;SDS011;669;50.206;9.998;2023-07-24T05:30:37;5.23;;;3.47;;
1350;SDS011;669;50.206;9.998;2023-07-24T05:33:05;3.90;;;3.60;;
1350;SDS011;669;50.206;9.998;2023-07-24T05:35:33;3.50;;;3.20;;
1350;SDS011;669;50.206;9.998;2023-07-24T05:38:01;3.93;;;3.63;;
1350;SDS011;669;50.206;9.998;2023-07-24T05:40:29;3.40;;;3.10;;
1350;SDS011;669;50.206;9.998;2023-07-24T05:42:57;4.53;;;3.20;;
1350;SDS011;669;50.206;9.998;2023-07-24T05:45:26;6.17;;;3.83;;
1350;SDS011;669;50.206;9.998;2023-07-24T05:47:55;3.47;;;3.17;;
1350;SDS011;669;50.206;9.998;2023-07-24T05:50:23;7.43;;;5.03;;
1350;SDS011;669;50.206;9.998;2023-07-24T05:52:51;4.77;;;4.30;;
1350;SDS011;669;50.206;9.998;2023-07-24T05:55:19;5.80;;;4.53;;
1350;SDS011;669;50.206;9.998;2023-07-24T05:57:47;6.53;;;4.70;;
1350;SDS011;669;50.206;9.998;2023-07-24T06:00:15;14.40;;;5.53;;
1350;SDS011;669;50.206;9.998;2023-07-24T06:02:44;5.90;;;5.13;;
1350;SDS011;669;50.206;9.998;2023-07-24T06:05:13;6.57;;;5.00;;
1350;SDS011;669;50.206;9.998;2023-07-24T06:07:41;4.77;;;4.30;;
1350;SDS011;669;50.206;9.998;2023-07-24T06:10:09;6.30;;;5.20;;
1350;SDS011;669;50.206;9.998;2023-07-24T06:12:37;4.97;;;4.57;;
1350;SDS011;669;50.206;9.998;2023-07-24T06:15:06;5.30;;;4.50;;
1350;SDS011;669;50.206;9.998;2023-07-24T06:17:34;5.73;;;5.00;;
1350;SDS011;669;50.206;9.998;2023-07-24T06:20:03;6.17;;;5.33;;
1350;SDS011;669;50.206;9.998;2023-07-24T06:22:33;6.17;;;5.57;;
1350;SDS011;669;50.206;9.998;2023-07-24T06:25:00;6.93;;;5.27;;
1350;SDS011;669;50.206;9.998;2023-07-24T06:27:28;7.67;;;5.80;;
1350;SDS011;669;50.206;9.998;2023-07-24T06:29:56;6.80;;;5.07;;
1350;SDS011;669;50.206;9.998;2023-07-24T06:32:40;6.17;;;5.10;;
1350;SDS011;669;50.206;9.998;2023-07-24T06:35:09;5.53;;;4.67;;
1350;SDS011;669;50.206;9.998;2023-07-24T06:37:38;7.90;;;5.70;;
1350;SDS011;669;50.206;9.998;2023-07-24T06:40:06;8.10;;;5.60;;
1350;SDS011;669;50.206;9.998;2023-07-24T06:42:35;8.73;;;6.07;;
1350;SDS011;669;50.206;9.998;2023-07-24T06:45:03;6.43;;;5.60;;
1350;SDS011;669;50.206;9.998;2023-07-24T06:47:33;8.30;;;6.77;;
1350;SDS011;669;50.206;9.998;2023-07-24T06:50:01;8.10;;;6.00;;
1350;SDS011;669;50.206;9.998;2023-07-24T06:52:31;6.80;;;5.07;;
1350;SDS011;669;50.206;9.998;2023-07-24T06:55:00;6.33;;;5.70;;
1350;SDS011;669;50.206;9.998;2023-07-24T06:57:28;7.00;;;5.30;;
1350;SDS011;669;50.206;9.998;2023-07-24T06:59:56;6.53;;;5.93;;
1350;SDS011;669;50.206;9.998;2023-07-24T07:02:24;5.87;;;5.03;;
1350;SDS011;669;50.206;9.998;2023-07-24T07:04:52;7.30;;;5.60;;
1350;SDS011;669;50.206;9.998;2023-07-24T07:07:20;5.47;;;4.83;;
1350;SDS011;669;50.206;9.998;2023-07-24T07:09:48;5.93;;;5.30;;
1350;SDS011;669;50.206;9.998;2023-07-24T07:12:17;7.47;;;5.53;;
1350;SDS011;669;50.206;9.998;2023-07-24T07:14:47;5.43;;;4.93;;
1350;SDS011;669;50.206;9.998;2023-07-24T07:17:15;5.20;;;4.70;;
1350;SDS011;669;50.206;9.998;2023-07-24T07:19:43;5.97;;;5.13;;
1350;SDS011;669;50.206;9.998;2023-07-24T07:22:11;6.50;;;5.03;;
1350;SDS011;669;50.206;9.998;2023-07-24T07:24:39;5.00;;;4.50;;
1350;SDS011;669;50.206;9.998;2023-07-24T07:27:07;6.67;;;5.00;;
1350;SDS011;669;50.206;9.998;2023-07-24T07:29:36;6.10;;;5.20;;
1350;SDS011;669;50.206;9.998;2023-07-24T07:32:05;5.97;;;5.47;;
1350;SDS011;669;50.206;9.998;2023-07-24T07:34:34;5.50;;;4.90;;
1350;SDS011;669;50.206;9.998;2023-07-24T07:37:03;7.53;;;6.23;;
1350;SDS011;669;50.206;9.998;2023-07-24T07:39:31;9.03;;;6.60;;
1350;SDS011;669;50.206;9.998;2023-07-24T07:41:59;9.93;;;5.97;;
1350;SDS011;669;50.206;9.998;2023-07-24T07:44:44;6.97;;;6.27;;
1350;SDS011;669;50.206;9.998;2023-07-24T07:47:12;6.33;;;5.70;;
1350;SDS011;669;50.206;9.998;2023-07-24T07:49:40;8.87;;;6.50;;
1350;SDS011;669;50.206;9.998;2023-07-24T07:52:09;10.50;;;6.73;;
1350;SDS011;669;50.206;9.998;2023-07-24T07:54:36;9.63;;;6.40;;
1350;SDS011;669;50.206;9.998;2023-07-24T07:57:04;9.70;;;6.27;;
1350;SDS011;669;50.206;9.998;2023-07-24T07:59:32;6.67;;;6.00;;
1350;SDS011;669;50.206;9.998;2023-07-24T08:02:03;7.33;;;6.13;;
1350;SDS011;669;50.206;9.998;2023-07-24T08:04:31;7.63;;;6.93;;
1350;SDS011;669;50.206;9.998;2023-07-24T08:06:59;7.97;;;6.70;;
1350;SDS011;669;50.206;9.998;2023-07-24T08:09:27;8.23;;;7.20;;
1350;SDS011;669;50.206;9.998;2023-07-24T08:11:55;8.03;;;6.47;;
1350;SDS011;669;50.206;9.998;2023-07-24T08:14:23;7.77;;;6.37;;
1350;SDS011;669;50.206;9.998;2023-07-24T08:16:51;8.07;;;6.83;;
1350;SDS011;669;50.206;9.998;2023-07-24T08:19:21;8.03;;;6.90;;
1350;SDS011;669;50.206;9.998;2023-07-24T08:21:49;9.20;;;7.80;;
1350;SDS011;669;50.206;9.998;2023-07-24T08:24:17;8.83;;;6.33;;
1350;SDS011;669;50.206;9.998;2023-07-24T08:26:45;7.83;;;6.43;;
1350;SDS011;669;50.206;9.998;2023-07-24T08:29:13;8.50;;;6.70;;
1350;SDS011;669;50.206;9.998;2023-07-24T08:31:41;8.90;;;7.60;;
1350;SDS011;669;50.206;9.998;2023-07-24T08:34:09;10.20;;;7.67;;
1350;SDS011;669;50.206;9.998;2023-07-24T08:36:38;9.13;;;6.50;;
1350;SDS011;669;50.206;9.998;2023-07-24T08:39:06;8.60;;;7.23;;
1350;SDS011;669;50.206;9.998;2023-07-24T08:41:34;9.80;;;7.73;;
1350;SDS011;669;50.206;9.998;2023-07-24T08:44:03;7.90;;;6.43;;
1350;SDS011;669;50.206;9.998;2023-07-24T08:46:33;8.20;;;7.13;;
1350;SDS011;669;50.206;9.998;2023-07-24T08:49:03;6.83;;;6.13;;
1350;SDS011;669;50.206;9.998;2023-07-24T08:51:31;11.40;;;7.37;;
1350;SDS011;669;50.206;9.998;2023-07-24T08:54:01;9.53;;;7.57;;
1350;SDS011;669;50.206;9.998;2023-07-24T08:56:30;7.50;;;6.60;;
1350;SDS011;669;50.206;9.998;2023-07-24T08:58:58;12.67;;;8.70;;
1350;SDS011;669;50.206;9.998;2023-07-24T09:01:26;9.10;;;8.00;;
1350;SDS011;669;50.206;9.998;2023-07-24T09:03:54;8.80;;;6.63;;
1350;SDS011;669;50.206;9.998;2023-07-24T09:06:23;8.60;;;6.80;;
1350;SDS011;669;50.206;9.998;2023-07-24T09:08:54;7.50;;;6.80;;
1350;SDS011;669;50.206;9.998;2023-07-24T09:11:23;8.37;;;7.50;;
1350;SDS011;669;50.206;9.998;2023-07-24T09:13:51;7.03;;;6.23;;
1350;SDS011;669;50.206;9.998;2023-07-24T09:16:21;9.90;;;7.23;;
1350;SDS011;669;50.206;9.998;2023-07-24T09:18:50;8.10;;;6.63;;
1350;SDS011;669;50.206;9.998;2023-07-24T09:21:28;9.50;;;7.27;;
1350;SDS011;669;50.206;9.998;2023-07-24T09:23:57;7.67;;;6.90;;
1350;SDS011;669;50.206;9.998;2023-07-24T09:26:40;10.03;;;7.17;;
1350;SDS011;669;50.206;9.998;2023-07-24T09:29:14;9.40;;;7.17;;
1350;SDS011;669;50.206;9.998;2023-07-24T09:31:42;7.60;;;6.57;;
1350;SDS011;669;50.206;9.998;2023-07-24T09:34:15;8.97;;;7.10;;
1350;SDS011;669;50.206;9.998;2023-07-24T09:36:43;8.97;;;7.20;;
1350;SDS011;669;50.206;9.998;2023-07-24T09:39:12;8.57;;;6.47;;
1350;SDS011;669;50.206;9.998;2023-07-24T09:41:41;8.87;;;7.07;;
1350;SDS011;669;50.206;9.998;2023-07-24T09:44:11;8.70;;;7.63;;
1350;SDS011;669;50.206;9.998;2023-07-24T09:46:40;11.87;;;7.13;;
1350;SDS011;669;50.206;9.998;2023-07-24T09:49:26;9.47;;;7.70;;
1350;SDS011;669;50.206;9.998;2023-07-24T09:51:54;8.07;;;6.53;;
1350;SDS011;669;50.206;9.998;2023-07-24T09:54:27;10.60;;;8.97;;
1350;SDS011;669;50.206;9.998;2023-07-24T09:57:01;11.40;;;7.00;;
1350;SDS011;669;50.206;9.998;2023-07-24T09:59:46;12.60;;;6.83;;
1350;SDS011;669;50.206;9.998;2023-07-24T10:02:15;9.30;;;8.10;;
1350;SDS011;669;50.206;9.998;2023-07-24T10:04:44;11.23;;;7.77;;
1350;SDS011;669;50.206;9.998;2023-07-24T10:07:13;8.13;;;7.03;;
1350;SDS011;669;50.206;9.998;2023-07-24T10:09:42;8.97;;;7.80;;
1350;SDS011;669;50.206;9.998;2023-07-24T10:12:12;9.30;;;7.40;;
1350;SDS011;669;50.206;9.998;2023-07-24T10:14:42;7.63;;;6.63;;
1350;SDS011;669;50.206;9.998;2023-07-24T10:17:12;7.83;;;6.53;;
1350;SDS011;669;50.206;9.998;2023-07-24T10:19:42;7.70;;;7.00;;
1350;SDS011;669;50.206;9.998;2023-07-24T10:22:16;9.00;;;6.73;;
1350;SDS011;669;50.206;9.998;2023-07-24T10:24:45;10.73;;;7.30;;
1350;SDS011;669;50.206;9.998;2023-07-24T10:27:15;8.97;;;7.50;;
1350;SDS011;669;50.206;9.998;2023-07-24T10:29:43;7.87;;;7.07;;
1350;SDS011;669;50.206;9.998;2023-07-24T10:32:16;7.83;;;7.03;;
1350;SDS011;669;50.206;9.998;2023-07-24T10:34:45;8.63;;;7.63;;
1350;SDS011;669;50.206;9.998;2023-07-24T10:37:30;9.60;;;7.50;;
1350;SDS011;669;50.206;9.998;2023-07-24T10:40:00;9.70;;;7.50;;
1350;SDS011;669;50.206;9.998;2023-07-24T10:42:31;7.90;;;7.10;;
1350;SDS011;669;50.206;9.998;2023-07-24T10:45:03;9.10;;;7.53;;
1350;SDS011;669;50.206;9.998;2023-07-24T10:47:32;12.40;;;7.23;;
1350;SDS011;669;50.206;9.998;2023-07-24T10:50:00;7.50;;;6.70;;
1350;SDS011;669;50.206;9.998;2023-07-24T10:52:29;8.33;;;7.50;;
1350;SDS011;669;50.206;9.998;2023-07-24T10:55:00;8.93;;;6.60;;
1350;SDS011;669;50.206;9.998;2023-07-24T10:57:28;9.43;;;7.50;;
1350;SDS011;669;50.206;9.998;2023-07-24T10:59:58;9.23;;;7.40;;
1350;SDS011;669;50.206;9.998;2023-07-24T11:02:27;7.87;;;7.10;;
1350;SDS011;669;50.206;9.998;2023-07-24T11:04:58;10.80;;;7.13;;
1350;SDS011;669;50.206;9.998;2023-07-24T11:07:31;9.63;;;7.83;;
1350;SDS011;669;50.206;9.998;2023-07-24T11:10:00;7.67;;;6.30;;
1350;SDS011;669;50.206;9.998;2023-07-24T11:12:28;9.03;;;6.87;;
1350;SDS011;669;50.206;9.998;2023-07-24T11:14:59;7.90;;;7.10;;
1350;SDS011;669;50.206;9.998;2023-07-24T11:17:33;7.07;;;6.00;;
1350;SDS011;669;50.206;9.998;2023-07-24T11:20:07;7.13;;;6.03;;
1350;SDS011;669;50.206;9.998;2023-07-24T11:22:37;9.07;;;6.83;;
1350;SDS011;669;50.206;9.998;2023-07-24T11:25:07;8.90;;;7.17;;
1350;SDS011;669;50.206;9.998;2023-07-24T11:27:39;9.17;;;6.20;;
1350;SDS011;669;50.206;9.998;2023-07-24T11:30:10;7.30;;;6.47;;
1350;SDS011;669;50.206;9.998;2023-07-24T11:32:39;7.53;;;6.50;;
1350;SDS011;669;50.206;9.998;2023-07-24T11:35:08;7.47;;;6.33;;
1350;SDS011;669;50.206;9.998;2023-07-24T11:37:36;7.93;;;6.90;;
1350;SDS011;669;50.206;9.998;2023-07-24T11:40:04;6.00;;;5.40;;
1350;SDS011;669;50.206;9.998;2023-07-24T11:42:37;7.20;;;5.60;;
1350;SDS011;669;50.206;9.998;2023-07-24T11:45:06;8.10;;;5.63;;
1350;SDS011;669;50.206;9.998;2023-07-24T11:47:44;6.17;;;5.57;;
1350;SDS011;669;50.206;9.998;2023-07-24T11:50:13;6.03;;;5.33;;
1350;SDS011;669;50.206;9.998;2023-07-24T11:52:42;5.93;;;5.33;;
1350;SDS011;669;50.206;9.998;2023-07-24T11:55:12;6.27;;;5.40;;
1350;SDS011;669;50.206;9.998;2023-07-24T11:57:42;6.47;;;5.77;;
1350;SDS011;669;50.206;9.998;2023-07-24T12:00:17;5.40;;;4.90;;
1350;SDS011;669;50.206;9.998;2023-07-24T12:02:47;8.13;;;5.07;;
1350;SDS011;669;50.206;9.998;2023-07-24T12:05:16;8.23;;;5.47;;
1350;SDS011;669;50.206;9.998;2023-07-24T12:07:44;6.87;;;6.20;;
1350;SDS011;669;50.206;9.998;2023-07-24T12:10:13;7.70;;;5.70;;
1350;SDS011;669;50.206;9.998;2023-07-24T12:12:52;6.93;;;5.80;;
1350;SDS011;669;50.206;9.998;2023-07-24T12:15:21;5.97;;;5.20;;
1350;SDS011;669;50.206;9.998;2023-07-24T12:17:50;7.00;;;5.67;;
1350;SDS011;669;50.206;9.998;2023-07-24T12:20:18;6.77;;;5.50;;
1350;SDS011;669;50.206;9.998;2023-07-24T12:22:46;6.47;;;5.30;;
1350;SDS011;669;50.206;9.998;2023-07-24T12:25:14;6.10;;;5.40;;
1350;SDS011;669;50.206;9.998;2023-07-24T12:27:42;5.30;;;4.80;;
1350;SDS011;669;50.206;9.998;2023-07-24T12:30:10;6.93;;;6.13;;
1350;SDS011;669;50.206;9.998;2023-07-24T12:32:38;6.60;;;5.87;;
1350;SDS011;669;50.206;9.998;2023-07-24T12:35:08;7.20;;;5.90;;
1350;SDS011;669;50.206;9.998;2023-07-24T12:37:38;6.10;;;5.50;;
1350;SDS011;669;50.206;9.998;2023-07-24T12:40:07;11.57;;;5.73;;
1350;SDS011;669;50.206;9.998;2023-07-24T12:42:36;9.60;;;6.60;;
1350;SDS011;669;50.206;9.998;2023-07-24T12:45:04;6.13;;;5.50;;
1350;SDS011;669;50.206;9.998;2023-07-24T12:47:33;7.43;;;6.73;;
1350;SDS011;669;50.206;9.998;2023-07-24T12:50:01;8.17;;;6.20;;
1350;SDS011;669;50.206;9.998;2023-07-24T12:52:34;6.60;;;5.87;;
1350;SDS011;669;50.206;9.998;2023-07-24T12:55:03;5.70;;;5.20;;
1350;SDS011;669;50.206;9.998;2023-07-24T12:57:31;6.53;;;5.93;;
1350;SDS011;669;50.206;9.998;2023-07-24T12:59:59;7.90;;;5.33;;
1350;SDS011;669;50.206;9.998;2023-07-24T13:02:27;8.23;;;6.27;;
1350;SDS011;669;50.206;9.998;2023-07-24T13:04:55;7.27;;;6.10;;
1350;SDS011;669;50.206;9.998;2023-07-24T13:07:23;7.43;;;6.13;;
1350;SDS011;669;50.206;9.998;2023-07-24T13:09:53;11.17;;;5.63;;
1350;SDS011;669;50.206;9.998;2023-07-24T13:12:21;10.83;;;5.60;;
1350;SDS011;669;50.206;9.998;2023-07-24T13:14:49;6.83;;;5.80;;
1350;SDS011;669;50.206;9.998;2023-07-24T13:17:16;6.47;;;5.87;;
1350;SDS011;669;50.206;9.998;2023-07-24T13:19:44;9.10;;;5.97;;
1350;SDS011;669;50.206;9.998;2023-07-24T13:22:12;7.43;;;6.43;;
1350;SDS011;669;50.206;9.998;2023-07-24T13:24:40;6.77;;;6.07;;
1350;SDS011;669;50.206;9.998;2023-07-24T13:27:10;6.17;;;5.43;;
1350;SDS011;669;50.206;9.998;2023-07-24T13:29:37;6.27;;;5.17;;
1350;SDS011;669;50.206;9.998;2023-07-24T13:32:06;7.00;;;6.10;;
1350;SDS011;669;50.206;9.998;2023-07-24T13:34:34;7.07;;;6.37;;
1350;SDS011;669;50.206;9.998;2023-07-24T13:37:02;6.80;;;6.10;;
1350;SDS011;669;50.206;9.998;2023-07-24T13:39:30;10.13;;;6.10;;
1350;SDS011;669;50.206;9.998;2023-07-24T13:42:00;7.13;;;5.93;;
1350;SDS011;669;50.206;9.998;2023-07-24T13:44:29;11.07;;;5.80;;
1350;SDS011;669;50.206;9.998;2023-07-24T13:46:57;6.30;;;5.70;;
1350;SDS011;669;50.206;9.998;2023-07-24T13:49:25;6.40;;;5.73;;
1350;SDS011;669;50.206;9.998;2023-07-24T13:51:53;6.07;;;5.47;;
1350;SDS011;669;50.206;9.998;2023-07-24T13:54:21;6.30;;;5.70;;
1350;SDS011;669;50.206;9.998;2023-07-24T13:56:49;6.67;;;5.40;;
1350;SDS011;669;50.206;9.998;2023-07-24T13:59:16;6.30;;;5.60;;
1350;SDS011;669;50.206;9.998;2023-07-24T14:01:46;5.67;;;5.10;;
1350;SDS011;669;50.206;9.998;2023-07-24T14:04:14;6.77;;;6.00;;
1350;SDS011;669;50.206;9.998;2023-07-24T14:06:42;6.70;;;6.10;;
1350;SDS011;669;50.206;9.998;2023-07-24T14:09:10;8.03;;;6.33;;
1350;SDS011;669;50.206;9.998;2023-07-24T14:11:39;7.17;;;6.13;;
1350;SDS011;669;50.206;9.998;2023-07-24T14:14:07;6.47;;;5.60;;
1350;SDS011;669;50.206;9.998;2023-07-24T14:16:35;6.97;;;6.30;;
1350;SDS011;669;50.206;9.998;2023-07-24T14:19:08;8.03;;;6.57;;
1350;SDS011;669;50.206;9.998;2023-07-24T14:21:36;6.60;;;6.00;;
1350;SDS011;669;50.206;9.998;2023-07-24T14:24:04;6.47;;;5.87;;
1350;SDS011;669;50.206;9.998;2023-07-24T14:26:32;6.87;;;6.10;;
1350;SDS011;669;50.206;9.998;2023-07-24T14:29:02;6.87;;;5.50;;
1350;SDS011;669;50.206;9.998;2023-07-24T14:31:30;6.60;;;5.70;;
1350;SDS011;669;50.206;9.998;2023-07-24T14:33:59;7.10;;;6.40;;
1350;SDS011;669;50.206;9.998;2023-07-24T14:36:28;6.60;;;5.50;;
1350;SDS011;669;50.206;9.998;2023-07-24T14:39:00;6.30;;;5.70;;
1350;SDS011;669;50.206;9.998;2023-07-24T14:41:28;7.90;;;6.17;;
1350;SDS011;669;50.206;9.998;2023-07-24T14:43:57;9.73;;;6.40;;
1350;SDS011;669;50.206;9.998;2023-07-24T14:46:25;7.67;;;6.13;;
1350;SDS011;669;50.206;9.998;2023-07-24T14:48:53;8.23;;;6.80;;
1350;SDS011;669;50.206;9.998;2023-07-24T14:51:21;6.13;;;5.53;;
1350;SDS011;669;50.206;9.998;2023-07-24T14:53:51;6.17;;;5.57;;
1350;SDS011;669;50.206;9.998;2023-07-24T14:56:19;8.70;;;6.60;;
1350;SDS011;669;50.206;9.998;2023-07-24T14:58:47;7.30;;;6.10;;
1350;SDS011;669;50.206;9.998;2023-07-24T15:01:15;8.80;;;6.13;;
1350;SDS011;669;50.206;9.998;2023-07-24T15:03:44;7.37;;;6.63;;
1350;SDS011;669;50.206;9.998;2023-07-24T15:06:12;6.90;;;6.30;;
1350;SDS011;669;50.206;9.998;2023-07-24T15:08:39;11.13;;;6.83;;
1350;SDS011;669;50.206;9.998;2023-07-24T15:11:09;7.13;;;6.20;;
1350;SDS011;669;50.206;9.998;2023-07-24T15:13:37;6.20;;;5.60;;
1350;SDS011;669;50.206;9.998;2023-07-24T15:16:05;7.50;;;6.80;;
1350;SDS011;669;50.206;9.998;2023-07-24T15:18:33;8.30;;;6.60;;
1350;SDS011;669;50.206;9.998;2023-07-24T15:21:02;7.37;;;6.03;;
1350;SDS011;669;50.206;9.998;2023-07-24T15:23:30;7.90;;;6.80;;
1350;SDS011;669;50.206;9.998;2023-07-24T15:25:58;7.57;;;6.30;;
1350;SDS011;669;50.206;9.998;2023-07-24T15:28:27;7.43;;;6.30;;
1350;SDS011;669;50.206;9.998;2023-07-24T15:30:55;8.43;;;6.90;;
1350;SDS011;669;50.206;9.998;2023-07-24T15:33:23;6.60;;;5.97;;
1350;SDS011;669;50.206;9.998;2023-07-24T15:35:51;7.20;;;6.10;;
1350;SDS011;669;50.206;9.998;2023-07-24T15:38:19;8.73;;;5.93;;
1350;SDS011;669;50.206;9.998;2023-07-24T15:40:47;7.60;;;6.60;;